createdAt,value
2018-06-05T00:00:35.473Z,1.40
2018-06-05T00:03:03.978Z,1.43
2018-06-05T00:05:32.143Z,2.03
2018-06-05T00:08:00.527Z,1.43
2018-06-05T00:10:28.971Z,1.83
2018-06-05T00:12:57.385Z,1.63
2018-06-05T00:15:25.821Z,1.70
2018-06-05T00:17:54.863Z,1.17
2018-06-05T00:20:23.396Z,1.03
2018-06-05T00:22:52.857Z,1.30
2018-06-05T00:25:21.296Z,1.10
2018-06-05T00:27:49.969Z,1.53
2018-06-05T00:30:18.432Z,1.23
2018-06-05T00:32:46.847Z,0.90
2018-06-05T00:35:15.275Z,1.20
2018-06-05T00:37:43.813Z,1.53
2018-06-05T00:40:12.283Z,1.37
2018-06-05T00:42:40.713Z,2.03
2018-06-05T00:45:09.185Z,1.73
2018-06-05T00:47:37.719Z,1.20
2018-06-05T00:50:06.173Z,0.97
2018-06-05T00:52:34.596Z,1.37
2018-06-05T00:55:03.157Z,1.00
2018-06-05T00:57:31.613Z,1.47
2018-06-05T01:00:00.010Z,0.63
2018-06-05T01:02:28.437Z,1.00
2018-06-05T01:04:56.877Z,1.27
2018-06-05T01:07:25.285Z,1.63
2018-06-05T01:09:53.758Z,1.73
2018-06-05T01:12:22.209Z,2.03
2018-06-05T01:14:50.625Z,1.57
2018-06-05T01:17:19.044Z,0.87
2018-06-05T01:19:47.455Z,0.93
2018-06-05T01:22:16.466Z,2.17
2018-06-05T01:24:44.932Z,1.93
2018-06-05T01:27:14.080Z,1.20
2018-06-05T01:29:42.523Z,1.13
2018-06-05T01:32:10.990Z,1.73
2018-06-05T01:34:39.928Z,1.70
2018-06-05T01:37:08.369Z,0.60
2018-06-05T01:39:36.807Z,1.40
2018-06-05T01:42:05.343Z,1.30
2018-06-05T01:44:37.657Z,1.67
2018-06-05T01:47:06.882Z,1.40
2018-06-05T01:49:41.596Z,1.20
2018-06-05T01:52:10.281Z,1.80
2018-06-05T01:54:40.029Z,1.80
2018-06-05T01:57:09.328Z,0.80
2018-06-05T01:59:37.800Z,1.23
2018-06-05T02:02:06.253Z,1.30
2018-06-05T02:04:34.759Z,1.57
2018-06-05T02:07:03.362Z,1.47
2018-06-05T02:09:32.408Z,2.53
2018-06-05T02:12:00.805Z,1.70
2018-06-05T02:14:29.379Z,4.37
2018-06-05T02:16:57.880Z,0.80
2018-06-05T02:19:26.306Z,1.33
2018-06-05T02:21:55.164Z,1.33
2018-06-05T02:24:23.609Z,1.97
2018-06-05T02:26:52.041Z,1.97
2018-06-05T02:29:20.155Z,2.00
2018-06-05T02:31:48.594Z,1.70
2018-06-05T02:34:17.056Z,1.93
2018-06-05T02:36:45.532Z,2.37
2018-06-05T02:39:17.173Z,3.47
2018-06-05T02:41:45.669Z,2.73
2018-06-05T02:44:14.165Z,3.63
2018-06-05T02:46:42.692Z,2.63
2018-06-05T02:49:11.123Z,1.97
2018-06-05T02:51:39.611Z,2.67
2018-06-05T02:54:09.103Z,2.00
2018-06-05T02:56:37.563Z,1.47
2018-06-05T02:59:06.151Z,1.70
2018-06-05T03:01:34.617Z,2.37
2018-06-05T03:04:03.099Z,2.03
2018-06-05T03:06:31.499Z,1.33
2018-06-05T03:08:59.652Z,1.87
2018-06-05T03:11:29.501Z,2.50
2018-06-05T03:13:58.051Z,1.90
2018-06-05T03:16:26.498Z,3.27
2018-06-05T03:18:54.971Z,2.27
2018-06-05T03:21:23.371Z,2.67
2018-06-05T03:23:51.856Z,1.87
2018-06-05T03:26:20.252Z,2.90
2018-06-05T03:28:48.697Z,2.63
2018-06-05T03:31:17.239Z,3.20
2018-06-05T03:33:45.692Z,2.43
2018-06-05T03:36:14.161Z,1.77
2018-06-05T03:38:42.720Z,1.50
2018-06-05T03:41:11.212Z,3.60
2018-06-05T03:43:39.697Z,3.13
2018-06-05T03:46:08.081Z,2.30
2018-06-05T03:48:36.562Z,2.80
2018-06-05T03:51:05.012Z,1.97
2018-06-05T03:53:33.544Z,1.87
2018-06-05T03:56:02.000Z,2.63
2018-06-05T03:58:30.442Z,2.30
2018-06-05T04:00:58.963Z,1.77
2018-06-05T04:03:27.411Z,1.87
2018-06-05T04:05:55.844Z,3.03
2018-06-05T04:08:24.270Z,2.30
2018-06-05T04:10:53.581Z,2.20
2018-06-05T04:13:22.069Z,1.93
2018-06-05T04:15:50.556Z,2.03
2018-06-05T04:18:19.004Z,2.10
2018-06-05T04:20:48.588Z,2.20
2018-06-05T04:23:17.182Z,2.57
2018-06-05T04:25:45.680Z,1.60
2018-06-05T04:28:14.135Z,1.80
2018-06-05T04:30:42.593Z,1.80
2018-06-05T04:33:11.068Z,2.30
2018-06-05T04:35:39.566Z,1.20
2018-06-05T04:38:08.077Z,1.07
2018-06-05T04:40:36.596Z,1.40
2018-06-05T04:43:05.169Z,1.50
2018-06-05T04:45:33.702Z,1.67
2018-06-05T04:48:02.139Z,2.67
2018-06-05T04:50:30.596Z,1.60
2018-06-05T04:52:59.196Z,1.43
2018-06-05T04:55:27.604Z,1.17
2018-06-05T04:57:56.044Z,1.47
2018-06-05T05:00:24.459Z,1.30
2018-06-05T05:02:52.864Z,1.33
2018-06-05T05:05:21.271Z,0.60
2018-06-05T05:07:49.704Z,1.40
2018-06-05T05:10:18.184Z,1.03
2018-06-05T05:12:46.585Z,1.30
2018-06-05T05:15:15.008Z,1.90
2018-06-05T05:17:43.616Z,2.40
2018-06-05T05:20:12.038Z,1.50
2018-06-05T05:22:40.489Z,2.53
2018-06-05T05:25:08.917Z,1.67
2018-06-05T05:27:37.374Z,1.23
2018-06-05T05:30:05.802Z,0.83
2018-06-05T05:32:34.231Z,0.97
2018-06-05T05:35:02.635Z,1.17
2018-06-05T05:37:31.079Z,1.57
2018-06-05T05:39:59.562Z,1.67
2018-06-05T05:42:27.968Z,2.03
2018-06-05T05:44:56.481Z,1.53
2018-06-05T05:47:24.961Z,1.43
2018-06-05T05:49:53.431Z,0.83
2018-06-05T05:52:21.855Z,1.07
2018-06-05T05:54:50.285Z,1.20
2018-06-05T05:57:18.869Z,1.90
2018-06-05T05:59:47.375Z,1.30
2018-06-05T06:02:15.695Z,1.63
2018-06-05T06:04:44.181Z,1.30
2018-06-05T06:07:12.625Z,1.27
2018-06-05T06:09:41.048Z,1.53
2018-06-05T06:12:09.471Z,2.07
2018-06-05T06:14:37.995Z,1.27
2018-06-05T06:17:06.465Z,2.53
2018-06-05T06:19:34.869Z,0.97
2018-06-05T06:22:03.272Z,1.17
2018-06-05T06:24:31.710Z,1.37
2018-06-05T06:27:00.195Z,1.50
2018-06-05T06:29:28.614Z,1.33
2018-06-05T06:31:57.005Z,1.27
2018-06-05T06:34:25.432Z,1.87
2018-06-05T06:36:53.861Z,1.70
2018-06-05T06:39:22.320Z,1.20
2018-06-05T06:41:50.836Z,1.17
2018-06-05T06:44:19.289Z,1.50
2018-06-05T06:46:47.819Z,2.03
2018-06-05T06:49:16.356Z,1.67
2018-06-05T06:51:44.731Z,1.80
2018-06-05T06:54:13.227Z,2.47
2018-06-05T06:56:41.672Z,1.40
2018-06-05T06:59:10.160Z,1.73
2018-06-05T07:01:38.638Z,1.60
2018-06-05T07:04:07.030Z,1.57
2018-06-05T07:06:35.502Z,1.83
2018-06-05T07:09:05.960Z,1.93
2018-06-05T07:11:35.076Z,1.83
2018-06-05T07:14:03.584Z,1.57
2018-06-05T07:16:31.961Z,1.63
2018-06-05T07:19:00.450Z,2.20
2018-06-05T07:21:28.863Z,2.43
2018-06-05T07:23:57.436Z,2.37
2018-06-05T07:26:25.838Z,2.83
2018-06-05T07:28:55.465Z,3.87
2018-06-05T07:31:25.050Z,2.60
2018-06-05T07:33:53.422Z,2.63
2018-06-05T07:36:21.597Z,3.73
2018-06-05T07:38:50.045Z,2.37
2018-06-05T07:41:18.612Z,3.87
2018-06-05T07:43:47.601Z,2.67
2018-06-05T07:46:16.034Z,3.73
2018-06-05T07:48:44.211Z,2.40
2018-06-05T07:51:12.614Z,3.10
2018-06-05T07:53:41.159Z,3.40
2018-06-05T07:56:09.568Z,3.03
2018-06-05T07:58:38.069Z,2.40
2018-06-05T08:01:06.477Z,2.13
2018-06-05T08:03:34.837Z,2.07
2018-06-05T08:06:03.312Z,3.37
2018-06-05T08:08:31.741Z,2.20
2018-06-05T08:11:00.139Z,1.50
2018-06-05T08:13:28.538Z,3.53
2018-06-05T08:15:57.079Z,2.60
2018-06-05T08:18:25.461Z,3.07
2018-06-05T08:20:53.885Z,2.87
2018-06-05T08:23:22.325Z,2.83
2018-06-05T08:25:50.725Z,2.40
2018-06-05T08:28:19.174Z,3.77
2018-06-05T08:30:47.655Z,3.63
2018-06-05T08:33:16.101Z,3.67
2018-06-05T08:35:44.515Z,2.07
2018-06-05T08:38:13.011Z,3.57
2018-06-05T08:40:41.579Z,2.00
2018-06-05T08:43:09.736Z,2.30
2018-06-05T08:45:38.165Z,2.70
2018-06-05T08:48:06.709Z,3.50
2018-06-05T08:50:35.150Z,3.00
2018-06-05T08:53:03.641Z,2.00
2018-06-05T08:55:32.119Z,2.27
2018-06-05T08:58:00.534Z,2.47
2018-06-05T09:00:28.993Z,2.63
2018-06-05T09:02:57.449Z,2.80
2018-06-05T09:05:25.989Z,3.63
2018-06-05T09:07:54.446Z,1.90
2018-06-05T09:10:22.891Z,3.07
2018-06-05T09:12:51.346Z,2.60
2018-06-05T09:15:19.867Z,4.83
2018-06-05T09:17:48.337Z,2.73
2018-06-05T09:20:16.821Z,3.90
2018-06-05T09:22:45.319Z,1.87
2018-06-05T09:25:13.734Z,2.50
2018-06-05T09:27:42.151Z,2.43
2018-06-05T09:30:10.624Z,2.83
2018-06-05T09:32:40.000Z,2.03
2018-06-05T09:35:08.484Z,2.47
2018-06-05T09:37:37.024Z,3.00
2018-06-05T09:40:05.435Z,2.53
2018-06-05T09:42:33.939Z,2.37
2018-06-05T09:45:02.372Z,1.90
2018-06-05T09:47:31.641Z,2.07
2018-06-05T09:50:00.109Z,2.27
2018-06-05T09:52:28.578Z,2.13
2018-06-05T09:54:56.985Z,2.07
2018-06-05T09:57:25.415Z,2.10
2018-06-05T09:59:53.960Z,2.97
2018-06-05T10:02:22.368Z,0.97
2018-06-05T10:04:50.755Z,2.00
2018-06-05T10:07:19.211Z,2.10
2018-06-05T10:09:47.707Z,1.77
2018-06-05T10:12:16.156Z,2.30
2018-06-05T10:14:44.673Z,2.20
2018-06-05T10:17:13.085Z,2.00
2018-06-05T10:19:41.518Z,1.63
2018-06-05T10:22:09.895Z,1.13
2018-06-05T10:24:38.321Z,1.40
2018-06-05T10:27:06.820Z,2.97
2018-06-05T10:29:35.258Z,2.17
2018-06-05T10:32:03.803Z,1.27
2018-06-05T10:34:32.196Z,1.47
2018-06-05T10:37:00.569Z,1.87
2018-06-05T10:42:37.972Z,2.37
2018-06-05T10:45:06.069Z,2.70
2018-06-05T10:47:51.534Z,2.77
2018-06-05T10:50:19.922Z,3.07
2018-06-05T10:52:48.370Z,1.43
2018-06-05T10:55:16.829Z,1.77
2018-06-05T10:57:45.316Z,1.63
2018-06-05T11:00:13.739Z,2.97
2018-06-05T11:02:42.231Z,2.30
2018-06-05T11:05:10.772Z,2.10
2018-06-05T11:07:39.226Z,1.67
2018-06-05T11:10:07.666Z,2.43
2018-06-05T11:12:36.181Z,2.03
2018-06-05T11:15:04.671Z,2.90
2018-06-05T11:17:33.133Z,1.87
2018-06-05T11:20:01.654Z,1.70
2018-06-05T11:22:30.195Z,1.90
2018-06-05T11:24:58.771Z,2.60
2018-06-05T11:27:27.248Z,1.13
2018-06-05T11:29:55.660Z,1.70
2018-06-05T11:32:24.205Z,2.47
2018-06-05T11:34:53.102Z,2.50
2018-06-05T11:37:21.534Z,1.83
2018-06-05T11:39:49.955Z,1.53
2018-06-05T11:42:18.472Z,2.03
2018-06-05T11:44:47.008Z,1.40
2018-06-05T11:47:15.413Z,1.77
2018-06-05T11:49:43.821Z,1.80
2018-06-05T11:52:12.414Z,2.20
2018-06-05T11:54:40.848Z,0.90
2018-06-05T11:57:09.303Z,1.37
2018-06-05T11:59:37.724Z,1.83
2018-06-05T12:02:06.472Z,2.83
2018-06-05T12:04:34.914Z,2.60
2018-06-05T12:07:03.342Z,1.93
2018-06-05T12:09:31.765Z,2.07
2018-06-05T12:12:00.217Z,3.00
2018-06-05T12:14:28.709Z,2.27
2018-06-05T12:16:57.145Z,1.33
2018-06-05T12:19:25.531Z,2.27
2018-06-05T12:21:54.083Z,1.10
2018-06-05T12:24:22.234Z,1.63
2018-06-05T12:26:50.704Z,1.17
2018-06-05T12:29:19.121Z,0.73
2018-06-05T12:31:47.676Z,2.20
2018-06-05T12:34:16.199Z,1.83
2018-06-05T12:36:44.680Z,2.60
2018-06-05T12:39:13.146Z,1.53
2018-06-05T12:41:42.989Z,1.10
2018-06-05T12:44:11.388Z,1.03
2018-06-05T12:46:39.889Z,1.37
2018-06-05T12:49:08.338Z,1.53
2018-06-05T12:51:36.830Z,2.77
2018-06-05T12:54:06.811Z,0.90
2018-06-05T12:56:35.424Z,0.57
2018-06-05T12:59:03.948Z,1.00
2018-06-05T13:01:34.140Z,2.00
2018-06-05T13:04:02.674Z,1.97
2018-06-05T13:06:31.187Z,1.37
2018-06-05T13:09:00.692Z,1.67
2018-06-05T13:11:34.249Z,1.73
2018-06-05T13:14:03.257Z,1.33
2018-06-05T13:16:31.673Z,2.30
2018-06-05T13:19:00.084Z,0.93
2018-06-05T13:21:28.532Z,1.37
2018-06-05T13:23:58.419Z,0.97
2018-06-05T13:26:27.161Z,1.17
2018-06-05T13:28:55.562Z,0.90
2018-06-05T13:31:24.115Z,1.07
2018-06-05T13:33:52.541Z,1.43
2018-06-05T13:36:20.943Z,1.67
2018-06-05T13:38:49.373Z,1.33
2018-06-05T13:41:17.786Z,1.23
2018-06-05T13:43:46.276Z,1.33
2018-06-05T13:46:15.439Z,2.03
2018-06-05T13:48:43.981Z,1.10
2018-06-05T13:51:12.489Z,0.97
2018-06-05T13:53:41.000Z,1.67
2018-06-05T13:56:09.480Z,1.40
2018-06-05T13:58:37.940Z,1.40
2018-06-05T14:01:06.489Z,1.10
2018-06-05T14:03:35.989Z,1.43
2018-06-05T14:06:04.563Z,1.20
2018-06-05T14:08:33.016Z,1.30
2018-06-05T14:11:01.661Z,1.07
2018-06-05T14:13:30.071Z,0.67
2018-06-05T14:15:58.496Z,1.00
2018-06-05T14:18:26.901Z,0.67
2018-06-05T14:20:55.321Z,0.77
2018-06-05T14:23:23.728Z,1.53
2018-06-05T14:25:52.177Z,0.93
2018-06-05T14:28:20.606Z,0.97
2018-06-05T14:30:49.028Z,1.10
2018-06-05T14:33:17.456Z,1.07
2018-06-05T14:35:45.967Z,0.93
2018-06-05T14:38:14.380Z,1.87
2018-06-05T14:40:42.888Z,1.13
2018-06-05T14:43:11.293Z,1.37
2018-06-05T14:45:39.706Z,0.97
2018-06-05T14:48:08.075Z,1.50
2018-06-05T14:50:36.508Z,1.23
2018-06-05T14:53:04.893Z,1.20
2018-06-05T14:55:33.369Z,1.10
2018-06-05T14:58:01.511Z,0.83
2018-06-05T15:00:29.946Z,0.90
2018-06-05T15:02:58.511Z,0.70
2018-06-05T15:05:27.073Z,0.60
2018-06-05T15:07:55.481Z,1.90
2018-06-05T15:10:24.291Z,1.60
2018-06-05T15:12:52.705Z,1.03
2018-06-05T15:15:21.215Z,0.40
2018-06-05T15:17:49.639Z,1.13
2018-06-05T15:20:18.044Z,1.20
2018-06-05T15:22:46.465Z,0.80
2018-06-05T15:25:14.870Z,1.20
2018-06-05T15:27:43.333Z,1.53
2018-06-05T15:30:11.745Z,1.20
2018-06-05T15:32:40.168Z,0.50
2018-06-05T15:35:08.588Z,1.07
2018-06-05T15:37:37.013Z,1.47
2018-06-05T15:40:05.548Z,1.70
2018-06-05T15:42:33.961Z,1.73
2018-06-05T15:45:02.374Z,1.40
2018-06-05T15:47:30.495Z,1.63
2018-06-05T15:49:58.948Z,1.17
2018-06-05T15:52:27.372Z,1.20
2018-06-05T15:54:55.780Z,1.53
2018-06-05T15:57:24.165Z,1.10
2018-06-05T15:59:53.835Z,1.07
2018-06-05T16:02:22.278Z,1.03
2018-06-05T16:04:50.807Z,0.57
2018-06-05T16:07:18.974Z,1.10
2018-06-05T16:09:47.399Z,0.97
2018-06-05T16:12:16.036Z,0.70
2018-06-05T16:14:44.670Z,1.37
2018-06-05T16:17:13.073Z,1.83
2018-06-05T16:19:41.524Z,1.13
2018-06-05T16:22:10.392Z,1.47
2018-06-05T16:24:38.797Z,0.73
2018-06-05T16:27:07.394Z,1.40
2018-06-05T16:29:35.804Z,0.50
2018-06-05T16:32:04.237Z,0.90
2018-06-05T16:34:32.695Z,1.03
2018-06-05T16:37:02.049Z,0.57
2018-06-05T16:39:30.695Z,0.90
2018-06-05T16:41:59.180Z,1.50
2018-06-05T16:44:28.320Z,0.93
2018-06-05T16:46:56.849Z,0.93
2018-06-05T16:49:25.244Z,1.00
2018-06-05T16:51:53.968Z,1.13
2018-06-05T16:54:23.793Z,0.63
2018-06-05T16:56:52.916Z,1.27
2018-06-05T16:59:21.372Z,0.67
2018-06-05T17:01:49.898Z,1.20
2018-06-05T17:04:18.463Z,0.70
2018-06-05T17:06:46.842Z,0.83
2018-06-05T17:09:15.277Z,1.27
2018-06-05T17:11:43.736Z,1.17
2018-06-05T17:14:12.112Z,1.00
2018-06-05T17:16:40.524Z,0.80
2018-06-05T17:19:08.932Z,2.10
2018-06-05T17:21:37.354Z,0.93
2018-06-05T17:24:05.860Z,0.90
2018-06-05T17:26:34.351Z,0.90
2018-06-05T17:29:02.726Z,0.93
2018-06-05T17:31:31.157Z,0.67
2018-06-05T17:33:59.537Z,1.00
2018-06-05T17:36:28.994Z,0.70
2018-06-05T17:38:58.127Z,0.83
2018-06-05T17:41:26.796Z,0.50
2018-06-05T17:43:57.101Z,1.07
2018-06-05T17:46:25.490Z,0.80
2018-06-05T17:48:53.901Z,0.77
2018-06-05T17:51:22.460Z,0.83
2018-06-05T17:53:50.876Z,0.53
2018-06-05T17:56:19.324Z,0.50
2018-06-05T17:58:47.800Z,1.13
2018-06-05T18:01:16.178Z,0.93
2018-06-05T18:03:44.591Z,1.20
2018-06-05T18:06:12.984Z,0.53
2018-06-05T18:08:41.844Z,0.60
2018-06-05T18:11:10.329Z,0.70
2018-06-05T18:13:38.721Z,0.60
2018-06-05T18:16:07.141Z,0.93
2018-06-05T18:18:35.541Z,0.80
2018-06-05T18:21:03.936Z,1.07
2018-06-05T18:23:32.728Z,0.80
2018-06-05T18:26:01.156Z,0.70
2018-06-05T18:28:29.542Z,1.17
2018-06-05T18:30:57.971Z,0.90
2018-06-05T18:33:26.980Z,0.80
2018-06-05T18:35:56.021Z,0.50
2018-06-05T18:38:24.389Z,1.63
2018-06-05T18:40:52.808Z,1.33
2018-06-05T18:43:21.196Z,0.70
2018-06-05T18:45:49.682Z,0.93
2018-06-05T18:48:18.204Z,0.40
2018-06-05T18:50:46.626Z,0.40
2018-06-05T18:53:15.050Z,0.83
2018-06-05T18:55:43.154Z,0.40
2018-06-05T18:58:11.538Z,0.57
2018-06-05T19:00:40.092Z,0.97
2018-06-05T19:03:08.509Z,0.60
2018-06-05T19:05:36.941Z,0.93
2018-06-05T19:08:05.452Z,0.30
2018-06-05T19:10:33.852Z,0.50
2018-06-05T19:13:03.080Z,0.57
2018-06-05T19:15:31.564Z,0.80
2018-06-05T19:18:00.025Z,0.67
2018-06-05T19:20:28.567Z,0.77
2018-06-05T19:22:56.928Z,0.70
2018-06-05T19:25:25.422Z,0.40
2018-06-05T19:27:53.867Z,0.47
2018-06-05T19:30:22.385Z,0.67
2018-06-05T19:32:51.504Z,0.43
2018-06-05T19:35:20.137Z,0.60
2018-06-05T19:37:48.761Z,0.43
2018-06-05T19:40:20.577Z,0.43
2018-06-05T19:42:49.008Z,0.90
2018-06-05T19:45:17.631Z,0.60
2018-06-05T19:47:46.426Z,0.80
2018-06-05T19:50:14.975Z,0.93
2018-06-05T19:52:44.446Z,0.70
2018-06-05T19:55:12.953Z,0.50
2018-06-05T19:57:41.573Z,1.17
2018-06-05T20:00:10.456Z,0.57
2018-06-05T20:02:38.872Z,0.70
2018-06-05T20:05:07.328Z,0.60
2018-06-05T20:07:35.809Z,0.80
2018-06-05T20:10:04.327Z,0.70
2018-06-05T20:12:32.775Z,0.40
2018-06-05T20:15:01.328Z,0.60
2018-06-05T20:17:29.860Z,0.57
2018-06-05T20:19:58.439Z,0.77
2018-06-05T20:22:26.875Z,0.80
2018-06-05T20:24:55.332Z,0.90
2018-06-05T20:27:23.764Z,0.77
2018-06-05T20:29:52.276Z,0.53
2018-06-05T20:32:20.685Z,0.60
2018-06-05T20:34:49.075Z,0.63
2018-06-05T20:37:17.196Z,0.73
2018-06-05T20:39:45.662Z,0.93
2018-06-05T20:42:13.806Z,1.10
2018-06-05T20:44:42.245Z,0.90
2018-06-05T20:47:10.660Z,0.90
2018-06-05T20:49:39.108Z,1.10
2018-06-05T20:52:07.512Z,0.80
2018-06-05T20:54:35.968Z,0.67
2018-06-05T20:57:04.395Z,0.90
2018-06-05T20:59:32.817Z,0.40
2018-06-05T21:02:01.250Z,1.20
2018-06-05T21:04:29.639Z,1.37
2018-06-05T21:06:58.078Z,0.70
2018-06-05T21:09:26.568Z,0.80
2018-06-05T21:11:55.085Z,0.70
2018-06-05T21:14:23.490Z,1.20
2018-06-05T21:16:51.888Z,0.70
2018-06-05T21:19:20.320Z,0.80
2018-06-05T21:21:48.708Z,0.70
2018-06-05T21:24:17.147Z,0.80
2018-06-05T21:26:45.548Z,0.83
2018-06-05T21:29:13.965Z,1.10
2018-06-05T21:31:42.329Z,0.63
2018-06-05T21:34:10.881Z,0.73
2018-06-05T21:36:39.276Z,1.23
2018-06-05T21:39:09.148Z,0.87
2018-06-05T21:41:37.727Z,0.80
2018-06-05T21:44:06.140Z,0.67
2018-06-05T21:46:34.564Z,0.53
2018-06-05T21:49:02.981Z,0.43
2018-06-05T21:51:31.361Z,1.23
2018-06-05T21:53:59.778Z,0.53
2018-06-05T21:56:28.173Z,0.50
2018-06-05T21:58:56.626Z,0.83
2018-06-05T22:01:25.032Z,0.47
2018-06-05T22:03:53.442Z,0.67
2018-06-05T22:06:21.847Z,0.60
2018-06-05T22:08:50.340Z,0.77
2018-06-05T22:11:18.804Z,0.73
2018-06-05T22:13:47.190Z,0.80
2018-06-05T22:16:15.597Z,0.80
2018-06-05T22:18:43.969Z,0.67
2018-06-05T22:21:12.369Z,0.60
2018-06-05T22:23:40.895Z,0.60
2018-06-05T22:26:09.292Z,0.50
2018-06-05T22:28:37.706Z,0.70
2018-06-05T22:31:06.101Z,0.53
2018-06-05T22:33:34.487Z,0.60
2018-06-05T22:36:02.891Z,0.97
2018-06-05T22:38:31.258Z,0.67
2018-06-05T22:40:59.679Z,0.73
2018-06-05T22:43:28.069Z,1.40
2018-06-05T22:45:56.460Z,0.50
2018-06-05T22:48:24.884Z,0.60
2018-06-05T22:50:53.367Z,0.87
2018-06-05T22:53:21.757Z,1.13
2018-06-05T22:55:50.176Z,0.83
2018-06-05T22:58:18.944Z,0.77
2018-06-05T23:00:47.628Z,0.43
2018-06-05T23:03:16.103Z,0.97
2018-06-05T23:05:44.485Z,0.83
2018-06-05T23:08:12.984Z,0.30
2018-06-05T23:10:41.374Z,0.73
2018-06-05T23:13:09.764Z,0.93
2018-06-05T23:15:38.174Z,0.70
2018-06-05T23:18:06.576Z,0.63
2018-06-05T23:20:34.949Z,0.57
2018-06-05T23:23:03.382Z,0.80
2018-06-05T23:25:31.766Z,0.50
2018-06-05T23:28:00.133Z,0.90
2018-06-05T23:30:28.545Z,0.93
2018-06-05T23:32:56.949Z,0.67
2018-06-05T23:35:25.339Z,0.93
2018-06-05T23:37:54.091Z,0.40
2018-06-05T23:40:22.541Z,1.30
2018-06-05T23:42:51.009Z,1.13
2018-06-05T23:45:19.405Z,0.80
2018-06-05T23:47:47.883Z,0.87
2018-06-05T23:50:16.265Z,0.47
2018-06-05T23:52:44.764Z,0.50
2018-06-05T23:55:13.178Z,0.87
2018-06-05T23:57:41.558Z,0.80
